^^
Datos históricos de la estación: Murcia-Puente Tocinos
Diario Informe para Diciembre 05, 2021 Unidades:  Ingés    Métrico   Ambas
Diario Semanal Mensual Anual
  Máxima: Mínima: Promedio:
Temperatura: 66.2 °F 44.4 °F 55.6 °F
Punto de rocio: 41.7 °F 28.4 °F 37 °F
Humedad: 80% 25% 53%
Velocidad viento: 18.5mph 1.4mph 6.2mph
Racha viento: 36mph - -
Viento- - OSO
Presión: 30.1 in 30 in -
Precipitación: 0 in    
 
 
Tabla de datos para Diciembre 05, 2021
Hora Temperatura Punto de rocio Presión Viento Velocidad viento Racha viento Humedad Intensidad lluvia(por hora) Nubes
00:04 54.1 °F 41.7 °F 30.1 in SSO 1.8 mph 5.2 mph 63% 0 in
00:09 54 °F 41.5 °F 30.1 in Sur 2.3 mph 5.9 mph 63% 0 in
00:14 53.6 °F 41.5 °F 30.1 in SSE 3.6 mph 6.2 mph 63.5% 0 in
00:19 53.1 °F 41.4 °F 30.1 in SSE 3.9 mph 6.9 mph 64.3% 0 in
00:24 52.7 °F 41.4 °F 30.1 in SSE 4.7 mph 6.2 mph 65% 0 in
00:29 52.5 °F 41.4 °F 30.1 in SSE 4.6 mph 5.9 mph 66% 0 in
00:34 52.3 °F 41.4 °F 30.1 in SSE 4.3 mph 7.6 mph 66.1% 0 in
00:39 52.3 °F 41.7 °F 30.1 in SSE 4.5 mph 8.1 mph 66.7% 0 in
00:44 52.5 °F 41.7 °F 30.1 in SO 5.2 mph 5.2 mph 66.4% 0 in
00:49 52.3 °F 41.7 °F 30.1 in SSO 4.6 mph 5.9 mph 66.9% 0 in
00:54 52.5 °F 41.7 °F 30.1 in SSO 3.1 mph 5.8 mph 66.6% 0 in
00:59 52.5 °F 41.5 °F 30.1 in Oeste 2.9 mph 4.6 mph 66% 0 in
01:04 52.3 °F 41.4 °F 30.1 in NO 2.4 mph 4.6 mph 66.1% 0 in
01:09 52.2 °F 41.5 °F 30.1 in NNO 2.3 mph 4.6 mph 67.1% 0 in
01:14 52 °F 41.7 °F 30.1 in SSE 2 mph 6.9 mph 68% 0 in
01:19 51.6 °F 41.5 °F 30.1 in Sur 2.5 mph 5.9 mph 68% 0 in
01:24 51.4 °F 41.2 °F 30.1 in Sur 4 mph 5.2 mph 68% 0 in
01:29 51.3 °F 41.4 °F 30.1 in SSE 4 mph 5.9 mph 68.8% 0 in
01:34 50.9 °F 41.2 °F 30.1 in SSE 4 mph 5.9 mph 69% 0 in
01:39 50.7 °F 41.2 °F 30.1 in SSE 3.9 mph 5.9 mph 69.9% 0 in
01:44 50.5 °F 41 °F 30.1 in Sur 3.6 mph 4.6 mph 70% 0 in
01:49 50.4 °F 41 °F 30.1 in Sur 3.3 mph 4.6 mph 70.5% 0 in
01:54 50 °F 41 °F 30.1 in SSO 2.4 mph 3.6 mph 71% 0 in
01:59 49.8 °F 40.8 °F 30.1 in SO 2.3 mph 3.5 mph 71% 0 in
02:04 49.8 °F 40.8 °F 30.1 in SO 2 mph 3.5 mph 71% 0 in
02:09 49.6 °F 40.8 °F 30.1 in Oeste 2.1 mph 4.3 mph 71.8% 0 in
02:14 49.5 °F 40.8 °F 30.1 in ONO 2.4 mph 4.7 mph 72% 0 in
02:19 49.1 °F 40.5 °F 30.1 in Oeste 2.6 mph 5.2 mph 72% 0 in
02:24 48.9 °F 40.6 °F 30.1 in OSO 3.1 mph 4.7 mph 72.9% 0 in
02:29 48.7 °F 40.5 °F 30.1 in SO 3.1 mph 4.7 mph 73% 0 in
02:34 48.7 °F 40.5 °F 30.1 in SSO 3.1 mph 5.8 mph 73% 0 in
02:39 48.9 °F 40.6 °F 30.1 in Sur 3 mph 4.6 mph 73% 0 in
02:44 48.9 °F 40.6 °F 30.1 in SSO 2.9 mph 4.6 mph 73% 0 in
02:49 48.9 °F 40.6 °F 30.1 in Sur 2.8 mph 4.7 mph 73% 0 in
02:54 48.9 °F 40.6 °F 30.1 in SSE 2.4 mph 4.6 mph 73% 0 in
02:59 48.9 °F 40.6 °F 30.1 in SSO 2.5 mph 4.7 mph 73% 0 in
03:04 48.9 °F 40.6 °F 30.1 in SSO 2.9 mph 5.2 mph 73% 0 in
03:09 48.9 °F 40.6 °F 30.1 in SO 2.9 mph 4.6 mph 73% 0 in
03:14 48.9 °F 40.5 °F 30.1 in ONO 3.1 mph 3.6 mph 72.7% 0 in
03:19 48.7 °F 40.3 °F 30.1 in ONO 2.9 mph 4.7 mph 72.6% 0 in
03:24 48.7 °F 40.5 °F 30.1 in SE 2 mph 4.7 mph 73% 0 in
03:29 48.7 °F 40.5 °F 30.1 in SSE 2.2 mph 4.3 mph 73% 0 in
03:34 48.6 °F 40.3 °F 30.1 in Sur 2.9 mph 4.6 mph 73% 0 in
03:39 48.6 °F 40.3 °F 30.1 in SO 2.9 mph 4.6 mph 73% 0 in
03:44 48.6 °F 40.3 °F 30.1 in OSO 2.9 mph 2.9 mph 73% 0 in
03:49 48.6 °F 40.3 °F 30.1 in OSO 2.5 mph 2.3 mph 73% 0 in
03:54 48.6 °F 40.3 °F 30.1 in OSO 1.4 mph 3.5 mph 73% 0 in
03:59 48.4 °F 40.1 °F 30.1 in OSO 1.4 mph 2.3 mph 73% 0 in
04:04 48.2 °F 40.1 °F 30.1 in OSO 1.4 mph 3.5 mph 73.7% 0 in
04:09 48 °F 40.1 °F 30.1 in OSO 1.4 mph 2.9 mph 74% 0 in
04:14 48 °F 40.1 °F 30.1 in OSO 1.4 mph 3.5 mph 74% 0 in
04:19 47.8 °F 40.5 °F 30.1 in OSO 1.5 mph 2.9 mph 75% 0 in
04:24 47.8 °F 40.3 °F 30.1 in OSO 1.8 mph 4.6 mph 75% 0 in
04:29 47.8 °F 40.1 °F 30.1 in ONO 1.9 mph 4.6 mph 74.3% 0 in
04:34 47.7 °F 39.9 °F 30.1 in ONO 2 mph 3.6 mph 74.3% 0 in
04:39 47.5 °F 39.9 °F 30.1 in Oeste 2.1 mph 4.6 mph 75% 0 in
04:44 47.1 °F 39.7 °F 30.1 in OSO 2.4 mph 4.7 mph 75.5% 0 in
04:49 47.1 °F 39.9 °F 30.1 in Sur 2.7 mph 5.9 mph 76% 0 in
04:54 47.3 °F 40.1 °F 30.1 in SSO 3.6 mph 5.8 mph 76% 0 in
04:59 47.3 °F 40.1 °F 30.1 in SSO 3.4 mph 4.7 mph 76% 0 in
05:04 47.3 °F 40.1 °F 30.1 in Sur 3.1 mph 5.8 mph 76% 0 in
05:09 47.1 °F 39.9 °F 30.1 in Sur 3.1 mph 5.2 mph 76% 0 in
05:14 47.1 °F 39.9 °F 30.1 in SSO 3.1 mph 6.4 mph 76% 0 in
05:19 47.1 °F 39.9 °F 30.1 in SSO 3.4 mph 6.9 mph 76% 0 in
05:24 47.1 °F 39.9 °F 30.1 in SSO 4 mph 6.9 mph 76% 0 in
05:29 47.1 °F 39.9 °F 30.1 in SSO 4.1 mph 6.2 mph 76% 0 in
05:34 47.1 °F 39.7 °F 30.1 in SSO 4.3 mph 6.9 mph 75.4% 0 in
05:39 47.1 °F 39.6 °F 30.1 in SSO 4.2 mph 4.6 mph 75% 0 in
05:44 47.3 °F 39.9 °F 30.1 in SO 4 mph 4.6 mph 75% 0 in
05:49 47.5 °F 39.9 °F 30.1 in SO 3.5 mph 3.6 mph 75% 0 in
05:54 47.5 °F 39.9 °F 30.1 in SO 2.4 mph 4.6 mph 75% 0 in
05:59 47.5 °F 39.9 °F 30.1 in Oeste 2.4 mph 4.6 mph 74.9% 0 in
06:04 47.1 °F 39.4 °F 30.1 in Oeste 2.4 mph 3.5 mph 74.2% 0 in
06:09 46.9 °F 39.4 °F 30.1 in OSO 2.3 mph 4.6 mph 75% 0 in
06:14 46.8 °F 39.4 °F 30.1 in OSO 2 mph 5.9 mph 75.2% 0 in
06:19 46.6 °F 39.4 °F 30.1 in SO 2.5 mph 6.2 mph 76% 0 in
06:24 46.6 °F 39.7 °F 30.1 in SSO 4 mph 6.9 mph 76.6% 0 in
06:29 46.8 °F 39.9 °F 30.1 in SSO 4.2 mph 8.5 mph 77% 0 in
06:34 47.3 °F 40.3 °F 30.1 in Sur 4.7 mph 8.5 mph 76.4% 0 in
06:39 47.7 °F 39.9 °F 30.1 in SSO 4.7 mph 6.9 mph 74.7% 0 in
06:44 47.5 °F 39.6 °F 30.1 in SSE 4.7 mph 5.9 mph 74% 0 in
06:49 46.9 °F 39.2 °F 30.1 in SSE 4.4 mph 5.8 mph 74.4% 0 in
06:54 46.6 °F 39.2 °F 30.1 in SE 3.6 mph 3.1 mph 75% 0 in
06:59 46.2 °F 39 °F 30.1 in SE 3.1 mph 6.2 mph 75.9% 0 in
07:04 45.9 °F 38.7 °F 30.1 in SO 2 mph 7.4 mph 76% 0 in
07:09 45.3 °F 38.5 °F 30.1 in North 2.2 mph 5.8 mph 76.8% 0 in
07:14 45.1 °F 38.7 °F 30.1 in ONO 2.9 mph 4.6 mph 77.7% 0 in
07:19 45 °F 38.7 °F 30.1 in Oeste 2.8 mph 4.6 mph 78.6% 0 in
07:24 45 °F 38.7 °F 30.1 in Oeste 2.4 mph 4.6 mph 78.8% 0 in
07:29 44.8 °F 38.7 °F 30.1 in ONO 2.6 mph 8.5 mph 79% 0 in
07:34 44.4 °F 38.5 °F 30.1 in SO 3.1 mph 6.9 mph 79.5% 0 in
07:39 44.6 °F 38.8 °F 30.1 in Oeste 3.4 mph 8.1 mph 80% 0 in
07:44 44.8 °F 39 °F 30.1 in SO 4.3 mph 8.1 mph 80% 0 in
07:49 45 °F 39.2 °F 30.1 in SSO 4.3 mph 5.9 mph 80% 0 in
07:54 45.7 °F 39.7 °F 30.1 in Sur 4.3 mph 8.1 mph 79.4% 0 in
07:59 46.2 °F 39.6 °F 30.1 in Sur 4.7 mph 8.1 mph 77.4% 0 in
08:04 46.6 °F 39.7 °F 30.1 in SSO 5.4 mph 6.9 mph 76.7% 0 in
08:09 46.6 °F 39.4 °F 30.1 in SSO 4.9 mph 4.6 mph 76% 0 in
08:14 46.6 °F 39.4 °F 30.1 in SSO 3.6 mph 3.5 mph 76% 0 in
08:19 46.6 °F 39.4 °F 30.1 in SSO 3.2 mph 4.7 mph 76% 0 in
08:24 46.8 °F 39.4 °F 30.1 in SSO 2 mph 6.9 mph 75.5% 0 in
08:29 46.8 °F 39.4 °F 30.1 in SSO 2.7 mph 7.4 mph 74.8% 0 in
08:34 47.1 °F 39.2 °F 30.1 in OSO 4.7 mph 5.9 mph 74% 0 in
08:39 47.1 °F 39.2 °F 30.1 in OSO 4.3 mph 5.2 mph 73.5% 0 in
08:44 47.5 °F 39.2 °F 30.1 in SSO 3.1 mph 7.4 mph 73% 0 in
08:49 47.7 °F 39.2 °F 30.1 in North 3.4 mph 7.4 mph 72.1% 0 in
08:54 47.7 °F 39 °F 30.1 in Sur 4 mph 5.2 mph 72% 0 in
08:59 47.8 °F 39.4 °F 30.1 in Sur 3.7 mph 5.2 mph 72.8% 0 in
09:04 48.2 °F 39.4 °F 30.1 in Este 3.1 mph 7.4 mph 71.8% 0 in
09:09 48.6 °F 39.6 °F 30.1 in SE 3.2 mph 5.8 mph 71% 0 in
09:14 48.9 °F 39.7 °F 30.1 in ENE 3.6 mph 5.2 mph 70.5% 0 in
09:19 49.1 °F 39.6 °F 30.1 in SSE 3.4 mph 5.9 mph 69.3% 0 in
09:24 49.1 °F 39.7 °F 30.1 in SSE 2.9 mph 4.7 mph 69.9% 0 in
09:29 49.3 °F 39.9 °F 30.1 in SE 2.9 mph 5.8 mph 69.7% 0 in
09:34 49.6 °F 39.9 °F 30.1 in SSE 2.9 mph 5.9 mph 69.5% 0 in
09:39 50 °F 40.1 °F 30.1 in SSE 3.2 mph 5.8 mph 69% 0 in
09:44 50.7 °F 40.5 °F 30.1 in SSE 4 mph 6.9 mph 67.8% 0 in
09:49 51.6 °F 40.6 °F 30.1 in SSE 4.2 mph 10.4 mph 66.2% 0 in
09:54 53.1 °F 41 °F 30.1 in SSO 4.7 mph 11.5 mph 63.3% 0 in
09:59 54.5 °F 40.8 °F 30.1 in Sur 5.1 mph 9.7 mph 59.9% 0 in
10:04 55.6 °F 41 °F 30.1 in Sur 5.9 mph 6.9 mph 58% 0 in
10:09 56.1 °F 40.6 °F 30.1 in SO 5.5 mph 7.4 mph 56.3% 0 in
10:14 56.7 °F 40.5 °F 30.1 in SSO 4.3 mph 6.9 mph 54.6% 0 in
10:19 57.4 °F 40.5 °F 30.1 in SSO 4.4 mph 10.4 mph 53.1% 0 in
10:24 57.7 °F 40.1 °F 30.1 in Sur 4.7 mph 11.5 mph 52% 0 in
10:29 57.9 °F 40.3 °F 30.1 in SSO 5.1 mph 10.4 mph 51.7% 0 in
10:34 58.3 °F 40.3 °F 30.1 in SSO 6.2 mph 10.4 mph 51% 0 in
10:39 58.6 °F 40.3 °F 30.1 in Sur 6.2 mph 10.4 mph 50.6% 0 in
10:44 58.8 °F 39.7 °F 30.1 in SSO 6.2 mph 12.3 mph 49.1% 0 in
10:49 59.2 °F 39 °F 30.1 in SO 6.5 mph 16.1 mph 47.1% 0 in
10:54 59.5 °F 38.7 °F 30.1 in SSO 7.4 mph 13.8 mph 46% 0 in
10:59 59.7 °F 39.2 °F 30.1 in Sur 6.7 mph 6.9 mph 46.7% 0 in
11:04 60.3 °F 39.2 °F 30.1 in Sur 5.2 mph 7.4 mph 45.8% 0 in
11:09 60.4 °F 39.4 °F 30.1 in SSE 5 mph 8.5 mph 45.8% 0 in
11:14 60.6 °F 38.8 °F 30.1 in SO 4.3 mph 9.2 mph 44.5% 0 in
11:19 60.6 °F 38.8 °F 30.1 in SSO 4.5 mph 6.9 mph 44.3% 0 in
11:24 61 °F 38.7 °F 30.1 in SO 5.2 mph 10.4 mph 43.6% 0 in
11:29 61 °F 38.5 °F 30.1 in OSO 5 mph 9.2 mph 43.2% 0 in
11:34 61.2 °F 38.5 °F 30.1 in SO 4.3 mph 8.7 mph 43.2% 0 in
11:39 61.2 °F 38.5 °F 30.1 in SO 4.4 mph 9.2 mph 43% 0 in
11:44 61.3 °F 38.3 °F 30.1 in SO 4.7 mph 9.7 mph 42.6% 0 in
11:49 61.3 °F 38.5 °F 30.1 in SSO 5 mph 9.7 mph 42.8% 0 in
11:54 61.3 °F 38.1 °F 30.1 in SO 5.9 mph 8.1 mph 42.3% 0 in
11:59 61.3 °F 38.5 °F 30.1 in OSO 5.4 mph 8.1 mph 42.7% 0 in
12:04 61.7 °F 38.3 °F 30.1 in SO 4.3 mph 4.6 mph 42% 0 in
12:09 62.1 °F 38.7 °F 30.1 in NNO 4 mph 6.9 mph 42% 0 in
12:14 62.4 °F 38.5 °F 30 in SO 3.1 mph 9.7 mph 41.2% 0 in
12:19 62.4 °F 38.5 °F 30 in Sur 3.5 mph 8.1 mph 41% 0 in
12:24 62.8 °F 38.5 °F 30 in SO 4.7 mph 15.2 mph 40.6% 0 in
12:29 63.1 °F 36.5 °F 30 in SO 5.4 mph 21.9 mph 37.2% 0 in
12:34 63.7 °F 34.5 °F 30 in Oeste 7.4 mph 16.3 mph 33.7% 0 in
12:39 64.2 °F 32.4 °F 30 in Oeste 8.2 mph 25.3 mph 30.2% 0 in
12:44 64.6 °F 32.5 °F 30 in Oeste 10.7 mph 21.3 mph 30% 0 in
12:49 64.8 °F 32.4 °F 30 in ONO 11.1 mph 26.3 mph 29.7% 0 in
12:54 64.8 °F 31.6 °F 30 in Oeste 12.3 mph 26.5 mph 29% 0 in
12:59 64.6 °F 31.8 °F 30 in Oeste 12.6 mph 30.1 mph 29.3% 0 in
13:04 64.8 °F 32.5 °F 30 in Oeste 13.5 mph 29.9 mph 30% 0 in
13:09 64.8 °F 32.5 °F 30 in Oeste 13.4 mph 23.5 mph 29.9% 0 in
13:14 64.8 °F 31.6 °F 30 in Oeste 13 mph 22.3 mph 29% 0 in
13:19 64.8 °F 31.6 °F 30 in ONO 13.1 mph 21.5 mph 28.9% 0 in
13:24 64.9 °F 30.9 °F 30 in ONO 13.5 mph 22.5 mph 28% 0 in
13:29 64.9 °F 31.1 °F 30 in ONO 13.2 mph 23 mph 28% 0 in
13:34 65.1 °F 30.4 °F 30 in ONO 12.5 mph 27.6 mph 27.1% 0 in
13:39 65.1 °F 30 °F 30 in ONO 12.8 mph 24.2 mph 26.7% 0 in
13:44 65.3 °F 30.4 °F 30 in Oeste 13.5 mph 17.3 mph 26.9% 0 in
13:49 65.5 °F 29.7 °F 30 in Oeste 12.9 mph 26.8 mph 26% 0 in
13:54 65.3 °F 28.8 °F 30 in ONO 11.4 mph 26.5 mph 25.3% 0 in
13:59 65.3 °F 28.4 °F 30 in ONO 13 mph 25.3 mph 25% 0 in
14:04 65.3 °F 29.5 °F 30 in ONO 17 mph 20.7 mph 26% 0 in
14:09 65.5 °F 29.8 °F 30 in ONO 15.5 mph 18.4 mph 26% 0 in
14:14 65.7 °F 29.8 °F 30 in Oeste 11.8 mph 19.7 mph 26% 0 in
14:19 66 °F 30 °F 30 in ONO 11.7 mph 21.9 mph 26% 0 in
14:24 66 °F 30 °F 30 in Oeste 11.4 mph 18.4 mph 26% 0 in
14:29 66.2 °F 30.7 °F 30 in Oeste 11.4 mph 24.2 mph 26.6% 0 in
14:34 66.2 °F 30.4 °F 30 in Oeste 11.2 mph 20.7 mph 26.2% 0 in
14:39 66 °F 29.7 °F 30 in ONO 11.7 mph 27.6 mph 25.6% 0 in
14:44 65.8 °F 30 °F 30 in Oeste 13 mph 24.2 mph 26% 0 in
14:49 65.8 °F 29.5 °F 30 in ONO 13 mph 29.1 mph 25.5% 0 in
14:54 65.7 °F 29.5 °F 30 in ONO 13 mph 20.7 mph 25.6% 0 in
14:59 65.8 °F 29.5 °F 30 in Oeste 12.6 mph 26.5 mph 25.5% 0 in
15:04 65.8 °F 29.1 °F 30 in ONO 11.8 mph 24.2 mph 25.1% 0 in
15:09 66 °F 29.1 °F 30 in ONO 12.6 mph 24.2 mph 25% 0 in
15:14 65.8 °F 28.9 °F 30 in ONO 14.7 mph 23.5 mph 25% 0 in
15:19 65.8 °F 28.9 °F 30 in ONO 14.2 mph 19.6 mph 25% 0 in
15:24 66 °F 29.3 °F 30 in Oeste 13 mph 27.6 mph 25.3% 0 in
15:29 65.8 °F 29.7 °F 30 in Oeste 13.2 mph 25.3 mph 25.7% 0 in
15:34 65.7 °F 29.8 °F 30 in ONO 13.7 mph 25.3 mph 26% 0 in
15:39 65.5 °F 29.8 °F 30 in ONO 13.8 mph 24.2 mph 26.2% 0 in
15:44 65.5 °F 30.6 °F 30 in ONO 14 mph 21.3 mph 27% 0 in
15:49 65.1 °F 30.2 °F 30 in ONO 14 mph 29.9 mph 27% 0 in
15:54 64.8 °F 30.4 °F 30 in ONO 14 mph 26.5 mph 27.3% 0 in
15:59 64.6 °F 30.4 °F 30 in ONO 14.5 mph 36 mph 27.6% 0 in
16:04 64 °F 30.4 °F 30 in ONO 15.6 mph 35.1 mph 28% 0 in
16:09 63.9 °F 30.7 °F 30 in ONO 16.4 mph 34.5 mph 28.8% 0 in
16:14 63.9 °F 31.3 °F 30 in ONO 18.5 mph 18.4 mph 29.3% 0 in
16:19 63.7 °F 30.9 °F 30 in NO 16.9 mph 31.1 mph 29.1% 0 in
16:24 63.7 °F 30.7 °F 30 in ONO 12.5 mph 25.3 mph 29% 0 in
16:29 63.7 °F 30.7 °F 30 in ONO 13 mph 25.3 mph 29% 0 in
16:34 63.3 °F 31.3 °F 30 in ONO 14.7 mph 23.5 mph 29.9% 0 in
16:39 63.1 °F 31.3 °F 30 in ONO 13.9 mph 23 mph 30% 0 in
16:44 63.1 °F 31.3 °F 30 in ONO 11.8 mph 17.3 mph 30.1% 0 in
16:49 63 °F 31.8 °F 30 in ONO 11.5 mph 15 mph 31% 0 in
16:54 63 °F 31.8 °F 30 in ONO 10.7 mph 16.3 mph 31% 0 in
16:59 63 °F 31.1 °F 30 in Oeste 10.5 mph 23.5 mph 30% 0 in
17:04 63 °F 31.1 °F 30 in Oeste 10 mph 17.3 mph 30% 0 in
17:09 63.1 °F 31.1 °F 30 in Oeste 10 mph 18.1 mph 30% 0 in
17:14 63.1 °F 31.3 °F 30 in Oeste 10 mph 32.2 mph 30% 0 in
17:19 63 °F 31.1 °F 30 in Oeste 10.9 mph 20.7 mph 30% 0 in
17:24 63 °F 31.1 °F 30 in Oeste 13.5 mph 23.5 mph 30.1% 0 in
17:29 62.8 °F 32 °F 30 in OSO 12.7 mph 15 mph 31.4% 0 in
17:34 62.2 °F 32.5 °F 30 in SO 10.7 mph 16.8 mph 32.6% 0 in
17:39 62.1 °F 32.9 °F 30 in OSO 10.1 mph 17.3 mph 33.6% 0 in
17:44 61.7 °F 32.9 °F 30 in SO 8.5 mph 18.4 mph 34% 0 in
17:49 61.5 °F 32.9 °F 30 in OSO 9.3 mph 20.8 mph 34% 0 in
17:54 61.3 °F 32.7 °F 30 in OSO 11.4 mph 20.7 mph 34% 0 in
17:59 61.2 °F 32.7 °F 30 in OSO 11.3 mph 18.4 mph 34.1% 0 in
18:04 61.2 °F 32.9 °F 30 in OSO 11.2 mph 17.3 mph 34.6% 0 in
18:09 61 °F 33.1 °F 30 in SO 10.9 mph 13.8 mph 35% 0 in
18:14 60.8 °F 32.9 °F 30 in SO 10.2 mph 18.4 mph 35% 0 in
18:19 60.6 °F 33.4 °F 30 in OSO 10.3 mph 20.1 mph 36% 0 in
18:24 60.4 °F 33.4 °F 30.1 in OSO 10.7 mph 21.3 mph 36.1% 0 in
18:29 60.3 °F 34 °F 30.1 in OSO 10.7 mph 21.9 mph 37% 0 in
18:34 60.3 °F 33.8 °F 30.1 in OSO 10.7 mph 19.6 mph 37% 0 in
18:39 60.1 °F 33.6 °F 30.1 in OSO 10.5 mph 18.4 mph 37% 0 in
18:44 59.9 °F 34 °F 30.1 in OSO 10 mph 16.1 mph 37.6% 0 in
18:49 59.7 °F 34 °F 30.1 in OSO 9.6 mph 12.7 mph 38% 0 in
18:54 59.5 °F 34 °F 30.1 in OSO 8.5 mph 10.4 mph 38.3% 0 in
18:59 59.4 °F 34.3 °F 30.1 in OSO 8 mph 13.8 mph 39% 0 in
19:04 59.4 °F 34.3 °F 30.1 in OSO 6.9 mph 11.8 mph 39% 0 in
19:09 59.4 °F 34.3 °F 30.1 in OSO 6.9 mph 10.4 mph 39% 0 in
19:14 59.2 °F 34.2 °F 30.1 in OSO 6.9 mph 11.5 mph 39% 0 in
19:19 58.8 °F 34 °F 30.1 in OSO 6.5 mph 9.2 mph 39% 0 in
19:24 58.8 °F 34 °F 30.1 in OSO 5.2 mph 9.7 mph 39.1% 0 in
19:29 58.6 °F 34.3 °F 30.1 in OSO 5 mph 8.7 mph 39.9% 0 in
19:34 58.6 °F 33.8 °F 30.1 in OSO 4.7 mph 14 mph 39.2% 0 in
19:39 58.6 °F 33.6 °F 30.1 in OSO 5.2 mph 12.7 mph 39% 0 in
19:44 58.6 °F 33.6 °F 30.1 in OSO 6.4 mph 11.2 mph 39% 0 in
19:49 58.6 °F 33.6 °F 30.1 in OSO 6.2 mph 11.5 mph 39% 0 in
19:54 58.5 °F 33.6 °F 30.1 in OSO 5.4 mph 9.2 mph 39.1% 0 in
19:59 58.5 °F 34 °F 30.1 in Oeste 5.2 mph 6.9 mph 39.9% 0 in
20:04 58.3 °F 34 °F 30.1 in Oeste 4.7 mph 6.2 mph 40% 0 in
20:09 57.9 °F 33.8 °F 30.1 in Oeste 4.5 mph 6.9 mph 40% 0 in
20:14 57.7 °F 34.2 °F 30.1 in OSO 4 mph 6.9 mph 40.9% 0 in
20:19 57.6 °F 34.2 °F 30.1 in OSO 4 mph 6.9 mph 41% 0 in
20:24 57.6 °F 34 °F 30.1 in OSO 4 mph 6.2 mph 41% 0 in
20:29 57.6 °F 34 °F 30.1 in OSO 3.9 mph 5.8 mph 41% 0 in
20:34 57.4 °F 34.2 °F 30.1 in SO 3.6 mph 5.8 mph 41.5% 0 in
20:39 57.4 °F 34.5 °F 30.1 in SO 3.7 mph 6.9 mph 42% 0 in
20:44 57.4 °F 34.5 °F 30.1 in Oeste 4 mph 6.2 mph 42% 0 in
20:49 57.4 °F 34.5 °F 30.1 in NO 3.8 mph 4.6 mph 42% 0 in
20:54 57.4 °F 34.5 °F 30.1 in NNO 3.1 mph 4.7 mph 42.3% 0 in
20:59 57 °F 34.9 °F 30.1 in North 3.1 mph 5.8 mph 43.4% 0 in
21:04 56.7 °F 35.4 °F 30.1 in NNO 3.1 mph 7.4 mph 44.6% 0 in
21:09 56.8 °F 36 °F 30.1 in NNO 3.4 mph 8.5 mph 45.5% 0 in
21:14 57 °F 36.3 °F 30.1 in NNO 4.3 mph 11.5 mph 46% 0 in
21:19 57.6 °F 37.2 °F 30.1 in NNO 4.8 mph 12.3 mph 46.6% 0 in
21:24 57.6 °F 38.5 °F 30.1 in NNO 6.2 mph 19 mph 49% 0 in
21:29 57 °F 39 °F 30.1 in NNO 6.5 mph 14 mph 50.9% 0 in
21:34 56.7 °F 39.4 °F 30.1 in NNO 7.4 mph 13.8 mph 52.6% 0 in
21:39 56.1 °F 39.6 °F 30.1 in NO 7.3 mph 11.5 mph 53.6% 0 in
21:44 56.1 °F 39.7 °F 30.1 in NNO 6.9 mph 9.2 mph 54% 0 in
21:49 55.9 °F 40.1 °F 30.1 in NNO 6.4 mph 9.2 mph 55.1% 0 in
21:54 55.8 °F 40.3 °F 30.1 in NNO 5.2 mph 9.2 mph 56% 0 in
21:59 55.6 °F 40.6 °F 30.1 in NNO 5 mph 9.7 mph 56.9% 0 in
22:04 55.4 °F 40.6 °F 30.1 in North 4.7 mph 6.9 mph 57.6% 0 in
22:09 55.2 °F 40.6 °F 30.1 in North 4.4 mph 6.9 mph 58% 0 in
22:14 55 °F 41 °F 30.1 in North 3.6 mph 5.8 mph 59% 0 in
22:19 54.9 °F 40.8 °F 30.1 in North 3.6 mph 6.2 mph 59.1% 0 in
22:24 54.9 °F 41.2 °F 30.1 in NNO 3.6 mph 10.4 mph 60% 0 in
22:29 54.9 °F 41.2 °F 30.1 in NO 4 mph 9.2 mph 60% 0 in
22:34 54.9 °F 41.2 °F 30.1 in NO 5.2 mph 8.1 mph 60% 0 in
22:39 54.7 °F 41.2 °F 30.1 in ONO 5 mph 6.9 mph 60% 0 in
22:44 54.5 °F 41.2 °F 30.1 in ONO 4.7 mph 6.9 mph 60.5% 0 in
22:49 54.1 °F 41 °F 30.1 in ONO 4.8 mph 8.1 mph 61% 0 in
22:54 54 °F 41.2 °F 30.1 in ONO 5.2 mph 8.1 mph 61.9% 0 in
22:59 54 °F 41.2 °F 30.1 in ONO 5.3 mph 8.5 mph 62% 0 in
23:04 53.8 °F 41.2 °F 30.1 in ONO 5.4 mph 8.5 mph 62% 0 in
Murcia-Puente Tocinos, Espa?a
Compliments of Weather Underground - 3 mb

La estación de MeteoMurcia.com, publica sus datos en los siguientes proyectos:

Weather Underground PWS IMURCIAP2 Meteoclimatic www.awekas.at

W3Counter
Web Analytics